createdAt,value
2023-01-10T00:00:14.822Z,4.83
2023-01-10T00:03:03.211Z,5.43
2023-01-10T00:05:51.272Z,4.93
2023-01-10T00:08:39.253Z,4.50
2023-01-10T00:11:46.336Z,4.63
2023-01-10T00:14:35.235Z,6.17
2023-01-10T00:17:23.304Z,3.93
2023-01-10T00:20:12.669Z,4.87
2023-01-10T00:23:00.910Z,3.83
2023-01-10T00:25:49.139Z,4.30
2023-01-10T00:28:39.475Z,3.53
2023-01-10T00:31:27.756Z,5.23
2023-01-10T00:34:16.113Z,4.53
2023-01-10T00:37:04.212Z,3.50
2023-01-10T00:39:52.207Z,2.80
2023-01-10T00:42:57.662Z,4.10
2023-01-10T00:45:47.641Z,2.87
2023-01-10T00:48:35.980Z,4.53
2023-01-10T00:51:24.145Z,3.40
2023-01-10T00:54:13.016Z,2.67
2023-01-10T00:57:01.013Z,4.80
2023-01-10T00:59:48.945Z,3.13
2023-01-10T01:02:38.412Z,4.83
2023-01-10T01:05:27.238Z,5.20
2023-01-10T01:08:16.831Z,4.73
2023-01-10T01:11:05.124Z,4.40
2023-01-10T01:13:53.095Z,4.63
2023-01-10T01:16:41.119Z,6.73
2023-01-10T01:19:30.795Z,11.37
2023-01-10T01:22:18.777Z,5.50
2023-01-10T01:25:08.624Z,7.40
2023-01-10T01:27:56.656Z,4.43
2023-01-10T01:30:44.648Z,5.23
2023-01-10T01:33:32.694Z,4.70
2023-01-10T01:36:22.036Z,5.80
2023-01-10T01:39:10.054Z,7.23
2023-01-10T01:41:58.298Z,7.23
2023-01-10T01:44:47.720Z,6.17
2023-01-10T01:47:37.606Z,7.17
2023-01-10T01:50:29.212Z,6.57
2023-01-10T01:53:23.777Z,4.77
2023-01-10T01:56:17.189Z,7.53
2023-01-10T01:59:11.113Z,5.37
2023-01-10T02:02:04.868Z,7.97
2023-01-10T02:04:56.254Z,5.47
2023-01-10T02:07:47.143Z,7.30
2023-01-10T02:10:43.212Z,10.17
2023-01-10T02:13:32.360Z,8.07
2023-01-10T02:16:20.495Z,6.13
2023-01-10T02:19:14.846Z,7.93
2023-01-10T02:22:49.082Z,6.77
2023-01-10T02:26:15.953Z,8.33
2023-01-10T02:29:37.963Z,7.93
2023-01-10T02:32:50.369Z,7.20
2023-01-10T02:36:07.333Z,9.43
2023-01-10T02:39:03.497Z,8.40
2023-01-10T02:41:57.804Z,7.40
2023-01-10T02:44:51.100Z,7.80
2023-01-10T02:47:42.061Z,6.10
2023-01-10T02:50:44.338Z,6.60
2023-01-10T02:53:37.792Z,7.90
2023-01-10T02:56:59.786Z,4.97
2023-01-10T03:00:27.036Z,7.40
2023-01-10T03:03:33.085Z,4.97
2023-01-10T03:26:58.356Z,3.97
2023-01-10T03:29:51.777Z,4.43
2023-01-10T03:32:39.950Z,6.50
2023-01-10T03:35:36.411Z,6.70
2023-01-10T03:38:32.638Z,7.03
2023-01-10T03:41:28.025Z,6.20
2023-01-10T03:44:40.618Z,5.83
2023-01-10T03:47:34.843Z,7.63
2023-01-10T03:50:25.951Z,6.20
2023-01-10T03:53:15.585Z,7.00
2023-01-10T03:56:03.582Z,5.87
2023-01-10T03:58:51.561Z,5.73
2023-01-10T04:01:40.958Z,5.17
2023-01-10T04:04:28.944Z,6.00
2023-01-10T04:07:16.934Z,9.03
2023-01-10T04:10:05.217Z,5.90
2023-01-10T04:12:53.211Z,5.33
2023-01-10T04:15:41.154Z,4.67
2023-01-10T04:18:30.649Z,8.40
2023-01-10T04:21:18.615Z,4.77
2023-01-10T04:24:07.255Z,4.60
2023-01-10T04:26:55.342Z,4.90
2023-01-10T04:29:43.333Z,3.17
2023-01-10T04:32:31.287Z,7.30
2023-01-10T04:35:20.563Z,6.50
2023-01-10T04:38:08.515Z,7.60
2023-01-10T04:40:58.010Z,5.47
2023-01-10T04:43:46.071Z,8.07
2023-01-10T04:46:34.139Z,5.27
2023-01-10T04:49:22.184Z,5.27
2023-01-10T04:52:11.832Z,7.77
2023-01-10T04:54:59.828Z,5.63
2023-01-10T04:57:47.858Z,8.00
2023-01-10T05:00:35.904Z,4.80
2023-01-10T05:03:23.878Z,5.10
2023-01-10T05:06:11.846Z,6.47
2023-01-10T05:09:01.286Z,3.70
2023-01-10T05:11:49.327Z,5.10
2023-01-10T05:14:37.299Z,5.87
2023-01-10T05:17:25.406Z,8.57
2023-01-10T05:20:14.524Z,4.73
2023-01-10T05:23:12.404Z,7.43
2023-01-10T05:26:29.511Z,4.53
2023-01-10T05:29:19.345Z,4.67
2023-01-10T05:32:12.682Z,5.17
2023-01-10T05:35:00.656Z,7.90
2023-01-10T05:37:48.676Z,7.80
2023-01-10T05:40:36.637Z,7.37
2023-01-10T05:43:26.190Z,5.23
2023-01-10T05:46:14.277Z,6.97
2023-01-10T05:49:02.359Z,8.17
2023-01-10T05:51:50.303Z,4.27
2023-01-10T05:54:38.296Z,7.57
2023-01-10T05:57:26.304Z,6.60
2023-01-10T06:00:17.682Z,6.03
2023-01-10T06:03:05.808Z,6.80
2023-01-10T06:05:54.073Z,7.67
2023-01-10T06:08:42.077Z,6.90
2023-01-10T06:11:30.212Z,5.13
2023-01-10T06:14:19.471Z,7.07
2023-01-10T06:17:10.232Z,4.93
2023-01-10T06:19:59.704Z,8.33
2023-01-10T06:22:47.652Z,9.77
2023-01-10T06:25:40.388Z,8.27
2023-01-10T06:28:28.425Z,8.20
2023-01-10T06:31:16.454Z,10.23
2023-01-10T06:34:05.924Z,8.13
2023-01-10T06:36:53.986Z,6.43
2023-01-10T06:39:41.991Z,7.50
2023-01-10T06:42:29.956Z,6.70
2023-01-10T06:45:18.495Z,9.37
2023-01-10T06:48:06.869Z,7.63
2023-01-10T06:50:56.193Z,10.27
2023-01-10T06:53:45.333Z,8.03
2023-01-10T06:56:33.360Z,10.47
2023-01-10T06:59:21.468Z,7.23
2023-01-10T07:02:12.334Z,9.33
2023-01-10T07:05:00.411Z,8.23
2023-01-10T07:07:49.751Z,7.33
2023-01-10T07:10:37.730Z,7.03
2023-01-10T07:13:25.704Z,7.23
2023-01-10T07:16:15.365Z,7.80
2023-01-10T07:19:03.408Z,7.80
2023-01-10T07:21:51.366Z,9.17
2023-01-10T07:24:40.787Z,9.33
2023-01-10T07:27:31.362Z,8.57
2023-01-10T07:30:19.551Z,10.47
2023-01-10T07:33:07.667Z,6.63
2023-01-10T07:35:55.652Z,8.57
2023-01-10T07:38:43.661Z,9.57
2023-01-10T07:41:33.047Z,12.37
2023-01-10T07:44:21.067Z,8.27
2023-01-10T07:47:09.006Z,7.83
2023-01-10T07:49:57.045Z,8.20
2023-01-10T07:52:45.087Z,8.93
2023-01-10T07:55:34.746Z,6.67
2023-01-10T07:58:24.071Z,9.07
2023-01-10T08:01:12.084Z,6.77
2023-01-10T08:04:00.069Z,9.93
2023-01-10T08:06:48.242Z,8.17
2023-01-10T08:09:36.195Z,9.67
2023-01-10T08:12:25.152Z,12.03
2023-01-10T08:15:14.667Z,6.80
2023-01-10T08:18:04.821Z,12.33
2023-01-10T08:20:54.143Z,9.37
2023-01-10T08:23:42.144Z,10.10
2023-01-10T08:26:30.184Z,13.00
2023-01-10T08:29:18.187Z,7.43
2023-01-10T08:32:07.580Z,12.33
2023-01-10T08:34:55.562Z,9.07
2023-01-10T08:37:43.533Z,14.43
2023-01-10T08:40:31.674Z,10.87
2023-01-10T08:43:19.638Z,11.57
2023-01-10T08:46:07.889Z,11.10
2023-01-10T08:48:57.522Z,13.93
2023-01-10T08:51:45.700Z,13.63
2023-01-10T08:54:34.113Z,13.63
2023-01-10T08:57:22.117Z,12.90
2023-01-10T09:00:12.181Z,16.73
2023-01-10T09:03:00.240Z,13.23
2023-01-10T09:05:49.562Z,9.60
2023-01-10T09:08:38.130Z,12.90
2023-01-10T09:11:26.186Z,12.83
2023-01-10T09:14:14.445Z,12.87
2023-01-10T09:17:02.462Z,13.23
2023-01-10T09:19:50.623Z,17.13
2023-01-10T09:22:39.996Z,13.03
2023-01-10T09:25:28.039Z,11.33
2023-01-10T09:28:16.928Z,15.17
2023-01-10T09:31:05.290Z,12.03
2023-01-10T09:33:53.290Z,9.77
2023-01-10T09:36:41.301Z,11.67
2023-01-10T09:39:32.325Z,8.07
2023-01-10T09:42:31.983Z,15.47
2023-01-10T09:45:25.947Z,12.30
2023-01-10T09:48:21.485Z,11.50
2023-01-10T09:51:23.780Z,12.73
2023-01-10T09:54:16.570Z,8.50
2023-01-10T09:57:06.170Z,11.13
2023-01-10T09:59:55.031Z,12.10
2023-01-10T10:02:46.611Z,9.20
2023-01-10T10:05:34.602Z,8.13
2023-01-10T10:08:22.681Z,8.87
2023-01-10T10:11:44.040Z,6.57
2023-01-10T10:14:48.140Z,9.50
2023-01-10T10:17:47.054Z,6.47
2023-01-10T10:20:51.450Z,11.13
2023-01-10T10:23:56.763Z,6.10
2023-01-10T10:26:53.499Z,9.53
2023-01-10T10:30:04.612Z,6.47
2023-01-10T10:33:06.806Z,5.87
2023-01-10T10:36:00.248Z,9.97
2023-01-10T10:38:50.148Z,7.00
2023-01-10T10:41:41.969Z,7.93
2023-01-10T10:44:39.947Z,8.90
2023-01-10T10:47:34.164Z,8.80
2023-01-10T10:50:29.788Z,6.80
2023-01-10T10:53:19.196Z,12.80
2023-01-10T10:56:11.567Z,12.80
2023-01-10T10:59:01.209Z,10.27
2023-01-10T11:01:51.970Z,11.63
2023-01-10T11:04:41.479Z,8.30
2023-01-10T11:07:33.334Z,10.03
2023-01-10T11:10:38.318Z,12.63
2023-01-10T11:13:40.371Z,13.27
2023-01-10T11:16:31.582Z,6.87
2023-01-10T11:19:22.363Z,10.83
2023-01-10T11:22:17.803Z,10.93
2023-01-10T11:25:06.832Z,12.07
2023-01-10T11:27:56.654Z,14.60
2023-01-10T11:30:49.018Z,10.20
2023-01-10T11:33:39.824Z,11.87
2023-01-10T11:36:27.857Z,13.30
2023-01-10T11:39:17.808Z,15.93
2023-01-10T11:42:29.627Z,11.87
2023-01-10T11:45:27.439Z,10.70
2023-01-10T11:48:34.263Z,15.70
2023-01-10T11:51:34.697Z,13.50
2023-01-10T11:54:26.456Z,11.20
2023-01-10T11:57:19.937Z,9.70
2023-01-10T12:00:11.315Z,10.07
2023-01-10T12:02:59.685Z,11.13
2023-01-10T12:05:53.436Z,14.90
2023-01-10T12:08:42.485Z,12.00
2023-01-10T12:11:35.840Z,13.13
2023-01-10T12:14:23.822Z,9.20
2023-01-10T12:17:24.268Z,9.30
2023-01-10T12:20:15.994Z,14.00
2023-01-10T12:23:09.027Z,11.63
2023-01-10T12:26:10.989Z,13.40
2023-01-10T12:29:06.741Z,10.27
2023-01-10T12:31:58.750Z,8.33
2023-01-10T12:34:51.853Z,13.00
2023-01-10T12:37:47.237Z,11.07
2023-01-10T12:40:44.256Z,8.43
2023-01-10T12:43:54.389Z,10.70
2023-01-10T12:47:05.784Z,11.53
2023-01-10T12:50:00.346Z,10.17
2023-01-10T12:52:54.866Z,11.87
2023-01-10T12:55:45.153Z,12.27
2023-01-10T12:58:43.024Z,13.23
2023-01-10T13:01:32.997Z,7.67
2023-01-10T13:04:25.442Z,10.00
2023-01-10T13:07:14.341Z,5.87
2023-01-10T13:10:04.413Z,7.30
2023-01-10T13:12:57.892Z,8.27
2023-01-10T13:15:52.195Z,11.13
2023-01-10T13:19:00.011Z,10.37
2023-01-10T13:21:49.398Z,10.80
2023-01-10T13:24:37.451Z,10.70
2023-01-10T13:27:29.412Z,9.87
2023-01-10T13:30:29.205Z,8.27
2023-01-10T13:33:22.717Z,7.07
2023-01-10T13:36:13.403Z,13.10
2023-01-10T13:39:05.235Z,12.87
2023-01-10T13:42:47.701Z,9.50
2023-01-10T13:45:38.514Z,13.47
2023-01-10T13:48:28.509Z,14.17
2023-01-10T13:51:18.860Z,12.03
2023-01-10T13:54:26.818Z,10.70
2023-01-10T13:57:48.443Z,12.07
2023-01-10T14:01:18.289Z,9.63
2023-01-10T14:04:07.753Z,7.17
2023-01-10T14:06:58.195Z,8.63
2023-01-10T14:09:49.705Z,7.43
2023-01-10T14:12:48.565Z,12.83
2023-01-10T14:15:40.374Z,5.73
2023-01-10T14:18:33.956Z,9.53
2023-01-10T14:21:26.266Z,6.57
2023-01-10T14:24:26.713Z,10.33
2023-01-10T14:27:17.568Z,12.17
2023-01-10T14:30:08.597Z,7.37
2023-01-10T14:32:58.322Z,10.03
2023-01-10T14:35:48.990Z,10.60
2023-01-10T14:38:39.551Z,14.13
2023-01-10T14:41:35.638Z,7.23
2023-01-10T14:44:31.905Z,14.97
2023-01-10T14:47:30.703Z,7.63
2023-01-10T14:50:28.724Z,8.57
2023-01-10T14:56:20.718Z,10.37
2023-01-10T14:59:25.617Z,8.97
2023-01-10T15:02:22.881Z,7.10
2023-01-10T15:05:19.145Z,9.83
2023-01-10T15:08:21.221Z,4.13
2023-01-10T15:11:12.543Z,8.73
2023-01-10T15:14:10.295Z,11.27
2023-01-10T15:17:02.331Z,9.90
2023-01-10T15:19:53.421Z,8.67
2023-01-10T15:22:43.335Z,12.17
2023-01-10T15:25:37.963Z,11.77
2023-01-10T15:28:28.143Z,9.83
2023-01-10T15:31:18.022Z,7.67
2023-01-10T15:34:10.049Z,9.17
2023-01-10T15:37:00.890Z,11.20
2023-01-10T15:39:49.272Z,10.10
2023-01-10T15:42:38.013Z,6.03
2023-01-10T15:45:30.937Z,8.63
2023-01-10T15:48:29.876Z,9.77
2023-01-10T15:51:29.019Z,4.57
2023-01-10T15:54:30.931Z,9.10
2023-01-10T15:57:27.444Z,12.13
2023-01-10T16:00:18.994Z,12.10
2023-01-10T16:03:22.576Z,12.73
2023-01-10T16:06:23.078Z,11.77
2023-01-10T16:09:20.780Z,6.83
2023-01-10T16:12:42.983Z,9.27
2023-01-10T16:15:32.952Z,8.47
2023-01-10T16:18:21.076Z,8.53
2023-01-10T16:21:11.408Z,12.73
2023-01-10T16:24:00.894Z,8.07
2023-01-10T16:26:50.094Z,13.83
2023-01-10T16:29:38.148Z,9.23
2023-01-10T16:32:27.016Z,9.23
2023-01-10T16:35:18.514Z,7.77
2023-01-10T16:38:08.203Z,15.57
2023-01-10T16:41:00.571Z,11.23
2023-01-10T16:43:49.217Z,7.50
2023-01-10T16:46:37.632Z,9.23
2023-01-10T16:49:26.317Z,12.60
2023-01-10T16:52:14.937Z,8.87
2023-01-10T16:55:03.220Z,12.17
2023-01-10T16:57:52.659Z,11.17
2023-01-10T17:00:42.196Z,9.73
2023-01-10T17:03:33.838Z,10.57
2023-01-10T17:06:24.140Z,12.27
2023-01-10T17:09:22.525Z,10.13
2023-01-10T17:12:19.300Z,8.47
2023-01-10T17:15:15.176Z,9.13
2023-01-10T17:18:03.309Z,11.17
2023-01-10T17:20:54.094Z,8.23
2023-01-10T17:23:44.744Z,6.83
2023-01-10T17:26:35.070Z,6.90
2023-01-10T17:29:23.498Z,11.50
2023-01-10T17:32:12.910Z,10.07
2023-01-10T17:35:00.992Z,11.23
2023-01-10T17:37:50.397Z,9.70
2023-01-10T17:40:40.852Z,10.03
2023-01-10T17:43:29.671Z,9.77
2023-01-10T17:46:18.057Z,6.87
2023-01-10T17:49:07.365Z,10.53
2023-01-10T17:51:55.394Z,9.03
2023-01-10T17:54:44.978Z,13.00
2023-01-10T17:57:33.633Z,10.53
2023-01-10T18:00:21.678Z,10.17
2023-01-10T18:03:10.180Z,9.43
2023-01-10T18:06:00.119Z,9.33
2023-01-10T18:08:48.201Z,15.53
2023-01-10T18:11:36.162Z,11.47
2023-01-10T18:14:39.240Z,18.13
2023-01-10T18:17:27.285Z,8.83
2023-01-10T18:20:15.493Z,13.43
2023-01-10T18:23:23.085Z,15.57
2023-01-10T18:26:14.145Z,12.70
2023-01-10T18:29:03.418Z,10.13
2023-01-10T18:31:53.150Z,9.67
2023-01-10T18:34:41.270Z,13.90
2023-01-10T18:37:29.354Z,12.63
2023-01-10T18:40:19.023Z,16.07
2023-01-10T18:43:07.051Z,9.17
2023-01-10T18:46:01.916Z,8.10
2023-01-10T18:48:53.212Z,9.90
2023-01-10T18:51:41.204Z,11.87
2023-01-10T18:54:30.232Z,9.47
2023-01-10T18:57:19.837Z,12.43
2023-01-10T19:00:09.552Z,12.60
2023-01-10T19:02:59.541Z,15.67
2023-01-10T19:05:48.634Z,11.60
2023-01-10T19:08:38.193Z,11.30
2023-01-10T19:11:26.195Z,10.80
2023-01-10T19:14:15.462Z,11.77
2023-01-10T19:17:03.801Z,12.30
2023-01-10T19:19:51.893Z,11.33
2023-01-10T19:22:39.902Z,12.40
2023-01-10T19:25:28.412Z,18.43
2023-01-10T19:28:16.376Z,12.27
2023-01-10T19:31:06.039Z,12.07
2023-01-10T19:33:56.203Z,12.13
2023-01-10T19:36:45.537Z,12.73
2023-01-10T19:39:34.277Z,10.67
2023-01-10T19:42:23.899Z,10.70
2023-01-10T19:45:13.662Z,11.43
2023-01-10T19:48:02.952Z,8.33
2023-01-10T19:50:51.015Z,8.93
2023-01-10T19:53:43.162Z,7.83
2023-01-10T19:56:31.665Z,11.87
2023-01-10T19:59:20.070Z,7.47
2023-01-10T20:02:13.547Z,11.53
2023-01-10T20:05:03.651Z,10.80
2023-01-10T20:07:52.562Z,7.93
2023-01-10T20:10:40.900Z,8.70
2023-01-10T20:13:29.151Z,7.23
2023-01-10T20:16:18.951Z,7.00
2023-01-10T20:19:09.759Z,7.87
2023-01-10T20:21:59.191Z,8.43
2023-01-10T20:24:47.797Z,5.87
2023-01-10T20:27:36.283Z,6.73
2023-01-10T20:30:26.236Z,8.47
2023-01-10T20:33:14.471Z,9.10
2023-01-10T20:36:04.680Z,7.60
2023-01-10T20:38:54.454Z,8.90
2023-01-10T20:41:42.450Z,8.93
2023-01-10T20:44:31.191Z,6.47
2023-01-10T20:47:19.207Z,4.43
2023-01-10T20:50:08.508Z,4.80
2023-01-10T20:52:56.531Z,5.37
2023-01-10T20:55:56.271Z,7.10
2023-01-10T20:58:47.735Z,4.60
2023-01-10T21:01:36.202Z,7.60
2023-01-10T21:04:24.288Z,5.80
2023-01-10T21:07:12.765Z,4.37
2023-01-10T21:10:03.415Z,6.23
2023-01-10T21:12:52.724Z,6.93
2023-01-10T21:15:41.522Z,2.60
2023-01-10T21:18:33.455Z,3.07
2023-01-10T21:21:23.578Z,2.20
2023-01-10T21:24:11.927Z,5.03
2023-01-10T21:26:59.927Z,3.87
2023-01-10T21:29:49.264Z,5.13
2023-01-10T21:32:37.267Z,4.43
2023-01-10T21:35:25.216Z,3.27
2023-01-10T21:38:13.182Z,5.20
2023-01-10T21:41:08.118Z,5.27
2023-01-10T21:43:56.584Z,6.07
2023-01-10T21:46:48.763Z,5.27
2023-01-10T21:49:36.872Z,3.37
2023-01-10T21:52:24.972Z,5.13
2023-01-10T21:55:15.754Z,5.37
2023-01-10T21:58:03.761Z,2.57
2023-01-10T22:00:56.282Z,4.57
2023-01-10T22:03:47.201Z,5.47
2023-01-10T22:06:35.292Z,6.43
2023-01-10T22:09:25.065Z,1.90
2023-01-10T22:12:13.115Z,3.27
2023-01-10T22:15:01.223Z,4.23
2023-01-10T22:17:49.271Z,4.50
2023-01-10T22:20:43.923Z,3.37
2023-01-10T22:23:32.112Z,3.17
2023-01-10T22:26:20.155Z,3.27
2023-01-10T22:29:09.476Z,3.63
2023-01-10T22:31:57.880Z,4.53
2023-01-10T22:34:46.001Z,3.83
2023-01-10T22:37:35.464Z,3.37
2023-01-10T22:40:23.897Z,3.37
2023-01-10T22:43:12.670Z,3.73
2023-01-10T22:46:00.761Z,2.33
2023-01-10T22:48:49.161Z,2.67
2023-01-10T22:51:37.655Z,2.43
2023-01-10T22:54:27.087Z,1.93
2023-01-10T22:57:15.159Z,1.90
2023-01-10T23:00:03.312Z,4.53
2023-01-10T23:02:51.487Z,3.50
2023-01-10T23:05:39.514Z,1.33
2023-01-10T23:08:28.560Z,4.40
2023-01-10T23:11:20.356Z,3.23
2023-01-10T23:14:08.503Z,2.57
2023-01-10T23:16:56.657Z,3.03
2023-01-10T23:19:44.989Z,4.50
2023-01-10T23:22:33.017Z,2.90
2023-01-10T23:25:21.503Z,4.57
2023-01-10T23:28:10.991Z,3.83
2023-01-10T23:30:59.276Z,4.07
2023-01-10T23:33:47.820Z,5.33
2023-01-10T23:36:35.860Z,4.63
2023-01-10T23:39:23.914Z,4.13
2023-01-10T23:42:11.879Z,4.00
2023-01-10T23:45:01.202Z,3.27
2023-01-10T23:47:49.171Z,2.80
2023-01-10T23:50:37.560Z,4.07
2023-01-10T23:53:25.809Z,3.37
2023-01-10T23:56:15.652Z,4.60
2023-01-10T23:59:04.297Z,3.10
